Cape Peony — 3FDX6 — position and weather

sailwx.info

Track history (hours):
 
Tides and Currents Weather Stations Pressure Air Temp Water Temp Dewpoint Dewpoint Depression Visibility Wind Speed Wind Dir Waves Ship Positions

Cape Peony

Last reported at 2018-Jul-06 19:43 UTC. Time now 2018-Jul-22 04:34 UTC.
Position S 38°30' E 148°42'.
Warning: this ship's position is 15 days out of date.

Length 292 m; draft 16.7 m.

Type: Cargo ship. MMSI: 373590000.

Date/timePositionNaut miles runAvg speedWind from/ knotsBaromVisibWave heightAir tempDewpointWater temp
2018-Jul-06 19:43S 38°30' E 148°42'310.4
2018-Jul-06 19:28S 38°28' E 148°44'510.5
2018-Jul-06 19:00S 38°25' E 148°49'611.2
2018-Jul-06 18:27S 38°21' E 148°56'1111.1
2018-Jul-06 17:29S 38°14' E 149°06'1010.9
2018-Jul-06 16:33S 38°08' E 149°16'110.4
2018-Jul-06 16:29S 38°08' E 149°17'911.1
2018-Jul-06 15:42S 38°02' E 149°26'210.8
2018-Jul-06 15:29S 38°01' E 149°28'611.1
2018-Jul-06 14:57S 37°57' E 149°34'  
2018-Jul-03 15:47S 33°08' E 152°37'410.1
2018-Jul-03 15:22S 33°04' E 152°39'410.3
2018-Jul-03 15:00S 33°01' E 152°41'510.3
2018-Jul-03 14:29S 32°56' E 152°43'610.5
2018-Jul-03 13:56S 32°51' E 152°46'710.5
2018-Jul-03 13:18S 32°45' E 152°50'310.7
2018-Jul-03 13:00S 32°42' E 152°51'28910.3
2018-Jul-02 09:04S 27°58' E 153°50'212.9
2018-Jul-02 08:54S 27°56' E 153°50'513.0
2018-Jul-02 08:28S 27°50' E 153°50'713.4
2018-Jul-02 07:56S 27°43' E 153°49'613.3
2018-Jul-02 07:28S 27°37' E 153°49'1113.4
2018-Jul-02 06:37S 27°25' E 153°48'  
Track history (hours):
 
Tides and Currents Weather Stations Pressure Air Temp Water Temp Dewpoint Dewpoint Depression Visibility Wind Speed Wind Dir Waves Ship Positions

Cape Peony

Last reported at 2018-Jul-06 19:43 UTC. Time now 2018-Jul-22 04:34 UTC.
Position S 38°30' E 148°42'.
Warning: this ship's position is 15 days out of date.

Length 292 m; draft 16.7 m.

Type: Cargo ship. MMSI: 373590000.

Date/timePositionNaut miles runAvg speedWind from/ knotsBaromVisibWave heightAir tempDewpointWater temp
2018-Jul-06 19:43S 38°30' E 148°42'310.4
2018-Jul-06 19:28S 38°28' E 148°44'510.5
2018-Jul-06 19:00S 38°25' E 148°49'611.2
2018-Jul-06 18:27S 38°21' E 148°56'1111.1
2018-Jul-06 17:29S 38°14' E 149°06'1010.9
2018-Jul-06 16:33S 38°08' E 149°16'110.4
2018-Jul-06 16:29S 38°08' E 149°17'911.1
2018-Jul-06 15:42S 38°02' E 149°26'210.8
2018-Jul-06 15:29S 38°01' E 149°28'611.1
2018-Jul-06 14:57S 37°57' E 149°34'  
2018-Jul-03 15:47S 33°08' E 152°37'410.1
2018-Jul-03 15:22S 33°04' E 152°39'410.3
2018-Jul-03 15:00S 33°01' E 152°41'510.3
2018-Jul-03 14:29S 32°56' E 152°43'610.5
2018-Jul-03 13:56S 32°51' E 152°46'710.5
2018-Jul-03 13:18S 32°45' E 152°50'310.7
2018-Jul-03 13:00S 32°42' E 152°51'28910.3
2018-Jul-02 09:04S 27°58' E 153°50'212.9
2018-Jul-02 08:54S 27°56' E 153°50'513.0
2018-Jul-02 08:28S 27°50' E 153°50'713.4
2018-Jul-02 07:56S 27°43' E 153°49'613.3
2018-Jul-02 07:28S 27°37' E 153°49'1113.4
2018-Jul-02 06:37S 27°25' E 153°48'  

Dump ship's entire track history